Time;durP1;ratioP1;P1;durP2;ratioP2;P2;SDS_P1;SDS_P2;PMS_P1;PMS_P2;Temp;Humidity;BMP_temperature;BMP_pressure;BME280_temperature;BME280_humidity;BME280_pressure;Samples;Min_cycle;Max_cycle;Signal;HPM_P1;HPM_P2
2022/02/23 00:00:17;;;;;;;10.82;7.93;;;;;;;;;;7331711;19;154060;-15
2022/02/23 00:02:49;;;;;;;11.73;7.78;;;;;;;;;;7330138;19;153920;-15
2022/02/23 00:05:20;;;;;;;10.00;6.93;;;;;;;;;;7329986;19;161927;-19
2022/02/23 00:07:55;;;;;;;10.38;7.63;;;;;;;;;;7331481;19;162373;-15
2022/02/23 00:10:26;;;;;;;10.38;7.45;;;;;;;;;;7330344;19;153751;-15
2022/02/23 00:12:57;;;;;;;10.52;8.13;;;;;;;;;;7330402;19;153549;-14
2022/02/23 00:15:31;;;;;;;8.10;7.10;;;;;;;;;;7328734;19;162118;-15
2022/02/23 00:18:02;;;;;;;9.57;7.20;;;;;;;;;;7329778;19;162357;-15
2022/02/23 00:20:34;;;;;;;9.70;6.88;;;;;;;;;;7331019;19;154330;-15
2022/02/23 00:23:05;;;;;;;8.77;7.43;;;;;;;;;;7331938;19;153525;-15
2022/02/23 00:25:36;;;;;;;7.53;6.57;;;;;;;;;;7330433;19;161978;-15
2022/02/23 00:28:08;;;;;;;10.55;7.15;;;;;;;;;;7330529;19;162358;-15
2022/02/23 00:30:42;;;;;;;10.48;7.07;;;;;;;;;;7329706;19;154168;-14
2022/02/23 00:33:13;;;;;;;10.57;7.18;;;;;;;;;;7329652;19;153588;-15
2022/02/23 00:35:45;;;;;;;9.95;7.30;;;;;;;;;;7330445;19;161846;-14
2022/02/23 00:38:16;;;;;;;8.73;6.22;;;;;;;;;;7331470;19;162529;-15
2022/02/23 00:40:47;;;;;;;9.82;6.45;;;;;;;;;;7330444;19;154030;-14
2022/02/23 00:43:19;;;;;;;9.95;7.07;;;;;;;;;;7330460;19;153967;-15
2022/02/23 00:45:55;;;;;;;10.48;6.93;;;;;;;;;;7329667;19;162472;-15
2022/02/23 00:48:27;;;;;;;10.10;6.03;;;;;;;;;;7329719;19;162343;-15
2022/02/23 00:51:03;;;;;;;9.05;7.00;;;;;;;;;;7328983;19;153994;-14
2022/02/23 00:53:34;;;;;;;10.77;6.05;;;;;;;;;;7330697;19;153793;-15
2022/02/23 00:56:06;;;;;;;8.65;6.47;;;;;;;;;;7329606;19;163189;-14
2022/02/23 00:58:38;;;;;;;9.60;5.65;;;;;;;;;;7329714;19;162523;-15
2022/02/23 01:01:12;;;;;;;9.23;6.75;;;;;;;;;;7329088;19;154314;-15
2022/02/23 01:03:43;;;;;;;8.43;6.22;;;;;;;;;;7329804;19;153552;-15
2022/02/23 01:06:15;;;;;;;8.10;6.05;;;;;;;;;;7329282;19;161793;-16
2022/02/23 01:08:46;;;;;;;7.63;6.43;;;;;;;;;;7331530;19;162483;-15
2022/02/23 01:11:19;;;;;;;8.30;6.68;;;;;;;;;;7329676;19;154237;-15
2022/02/23 01:13:51;;;;;;;7.10;5.57;;;;;;;;;;7328219;19;153516;-14
2022/02/23 01:16:26;;;;;;;7.80;5.80;;;;;;;;;;7327547;19;161787;-15
2022/02/23 01:18:57;;;;;;;9.73;6.07;;;;;;;;;;7328859;19;162431;-15
2022/02/23 01:21:29;;;;;;;8.50;5.40;;;;;;;;;;7328092;19;153799;-15
2022/02/23 01:24:02;;;;;;;6.00;5.30;;;;;;;;;;7330639;19;153537;-15
2022/02/23 01:26:34;;;;;;;8.38;5.50;;;;;;;;;;7328828;19;161883;-14
2022/02/23 01:29:05;;;;;;;6.88;5.90;;;;;;;;;;7330109;19;162424;-16
2022/02/23 01:31:39;;;;;;;9.05;5.55;;;;;;;;;;7329096;19;154137;-15
2022/02/23 01:34:12;;;;;;;6.75;5.40;;;;;;;;;;7327572;19;153605;-14
2022/02/23 01:36:44;;;;;;;6.80;5.47;;;;;;;;;;7328575;19;161820;-15
2022/02/23 01:39:16;;;;;;;7.55;5.78;;;;;;;;;;7331053;19;162350;-15
2022/02/23 01:41:47;;;;;;;7.70;5.47;;;;;;;;;;7328473;19;154041;-16
2022/02/23 01:44:19;;;;;;;7.82;5.38;;;;;;;;;;7328623;19;153554;-15
2022/02/23 01:46:53;;;;;;;7.00;5.35;;;;;;;;;;7326719;19;161949;-14
2022/02/23 01:49:25;;;;;;;6.43;4.93;;;;;;;;;;7328601;19;162420;-14
2022/02/23 01:51:56;;;;;;;7.20;5.13;;;;;;;;;;7328449;19;154106;-14
2022/02/23 01:54:28;;;;;;;8.40;5.82;;;;;;;;;;7327001;19;153513;-15
2022/02/23 01:57:00;;;;;;;6.75;5.15;;;;;;;;;;7330589;19;161813;-15
2022/02/23 01:59:32;;;;;;;5.82;4.72;;;;;;;;;;7326441;19;162378;-15
2022/02/23 02:02:07;;;;;;;6.05;4.85;;;;;;;;;;7328398;19;154054;-15
2022/02/23 02:04:38;;;;;;;7.47;5.03;;;;;;;;;;7326825;19;153558;-14
2022/02/23 02:07:10;;;;;;;6.15;4.93;;;;;;;;;;7327682;19;162355;-15
2022/02/23 02:09:42;;;;;;;6.15;4.30;;;;;;;;;;7327579;19;162373;-14
2022/02/23 13:31:38;;;;;;;4.60;2.83;;;;;;;;;;7368649;19;132455;-16
2022/02/23 13:34:32;;;;;;;5.45;2.50;;;;;;;;;;7364498;19;153522;-14
2022/02/23 13:37:11;;;;;;;5.50;3.03;;;;;;;;;;7363815;19;162306;-16
2022/02/23 13:39:55;;;;;;;4.43;2.70;;;;;;;;;;7363245;19;162378;-16
2022/02/23 13:42:35;;;;;;;5.50;3.08;;;;;;;;;;7364658;19;153848;-17
2022/02/23 13:45:14;;;;;;;5.65;2.50;;;;;;;;;;7364660;19;153856;-16
2022/02/23 13:47:50;;;;;;;3.85;2.63;;;;;;;;;;7363080;19;161884;-16
2022/02/23 13:50:24;;;;;;;4.38;2.33;;;;;;;;;;7363968;19;162725;-15
2022/02/23 13:52:56;;;;;;;;;;;;;;;;;;7364791;19;153983;-15
2022/02/23 13:55:30;;;;;;;4.78;2.30;;;;;;;;;;7364475;19;153841;-15
2022/02/23 13:58:05;;;;;;;4.68;2.72;;;;;;;;;;7363940;19;161770;-16
2022/02/23 14:00:43;;;;;;;4.95;2.28;;;;;;;;;;7362052;19;162384;-15
2022/02/23 14:03:19;;;;;;;4.60;2.60;;;;;;;;;;7363982;19;154039;-15
2022/02/23 14:06:00;;;;;;;4.47;2.70;;;;;;;;;;7367640;19;153777;-15
2022/02/23 14:08:34;;;;;;;4.72;2.35;;;;;;;;;;7364573;19;161834;-16
2022/02/23 14:11:16;;;;;;;4.65;2.33;;;;;;;;;;7366891;19;162418;-15
2022/02/23 14:13:50;;;;;;;4.13;2.40;;;;;;;;;;7367186;19;154086;-15
2022/02/23 14:16:24;;;;;;;3.58;2.30;;;;;;;;;;7362402;19;153539;-15
2022/02/23 14:18:58;;;;;;;7.35;3.22;;;;;;;;;;7363096;19;162056;-16
2022/02/23 14:21:32;;;;;;;5.43;2.58;;;;;;;;;;7361185;19;162454;-14
2022/02/23 14:24:05;;;;;;;;;;;;;;;;;;7367577;19;154008;-16
2022/02/23 14:26:36;;;;;;;7.85;3.60;;;;;;;;;;7366448;19;153893;-14
2022/02/23 14:29:09;;;;;;;9.40;3.85;;;;;;;;;;7365818;19;162038;-15
2022/02/23 14:31:46;;;;;;;;;;;;;;;;;;7346769;19;162484;-14
2022/02/23 14:34:22;;;;;;;9.02;4.30;;;;;;;;;;7337338;19;154078;-15
2022/02/23 14:36:55;;;;;;;9.13;4.10;;;;;;;;;;7337371;19;153688;-15
2022/02/23 14:39:27;;;;;;;;;;;;;;;;;;7337574;19;161825;-14
2022/02/23 14:42:00;;;;;;;6.40;3.88;;;;;;;;;;7336679;19;162524;-16
2022/02/23 14:44:31;;;;;;;12.70;6.30;;;;;;;;;;7332803;19;154069;-16
2022/02/23 14:47:05;;;;;;;8.70;5.13;;;;;;;;;;7331752;19;153554;-15
2022/02/23 14:49:38;;;;;;;11.00;4.93;;;;;;;;;;7331791;19;162093;-15
2022/02/23 14:52:10;;;;;;;7.80;4.20;;;;;;;;;;7332055;19;162611;-15
2022/02/23 14:54:42;;;;;;;9.63;4.43;;;;;;;;;;7333555;19;153922;-15
2022/02/23 14:57:16;;;;;;;8.85;4.53;;;;;;;;;;7333617;19;153635;-15
2022/02/23 14:59:49;;;;;;;8.95;4.90;;;;;;;;;;7332753;19;162101;-15
2022/02/23 15:02:21;;;;;;;9.02;4.72;;;;;;;;;;7332768;19;162521;-16
2022/02/23 15:04:54;;;;;;;9.60;4.40;;;;;;;;;;7333218;19;154054;-16
2022/02/23 15:07:26;;;;;;;9.55;4.40;;;;;;;;;;7333180;19;153782;-15
2022/02/23 15:09:58;;;;;;;8.00;4.05;;;;;;;;;;7331755;19;162196;-16
2022/02/23 15:12:30;;;;;;;9.20;4.43;;;;;;;;;;7332881;19;162567;-16
2022/02/23 15:15:01;;;;;;;8.88;4.47;;;;;;;;;;7332433;19;153797;-16
2022/02/23 15:17:32;;;;;;;7.95;4.13;;;;;;;;;;7333043;19;153680;-15
2022/02/23 15:20:07;;;;;;;9.43;4.57;;;;;;;;;;7330983;19;162245;-17
2022/02/23 15:22:38;;;;;;;7.55;3.78;;;;;;;;;;7332393;19;162563;-15
2022/02/23 15:25:10;;;;;;;10.07;5.03;;;;;;;;;;7332815;19;153967;-15
2022/02/23 15:27:42;;;;;;;7.80;4.65;;;;;;;;;;7331630;19;153668;-16
2022/02/23 15:30:14;;;;;;;5.83;4.30;;;;;;;;;;7330778;19;161832;-15
2022/02/23 15:32:46;;;;;;;7.20;4.17;;;;;;;;;;7332262;19;162455;-16
2022/02/23 15:35:20;;;;;;;7.43;4.47;;;;;;;;;;7332759;19;154223;-16
2022/02/23 15:37:51;;;;;;;7.65;4.20;;;;;;;;;;7332347;19;153509;-15
2022/02/23 15:40:22;;;;;;;7.25;4.55;;;;;;;;;;7331653;19;162112;-16
2022/02/23 15:42:54;;;;;;;6.68;4.45;;;;;;;;;;7329324;19;162441;-16
2022/02/23 15:45:26;;;;;;;5.75;3.80;;;;;;;;;;7332239;19;153919;-13
2022/02/23 15:48:00;;;;;;;6.97;3.75;;;;;;;;;;7331720;19;153626;-13
2022/02/23 15:50:34;;;;;;;7.07;3.80;;;;;;;;;;7331704;19;161984;-14
2022/02/23 15:53:06;;;;;;;7.70;4.20;;;;;;;;;;7331628;19;162330;-13
2022/02/23 15:55:37;;;;;;;10.00;4.55;;;;;;;;;;7331815;19;153961;-13
2022/02/23 15:58:09;;;;;;;5.40;3.67;;;;;;;;;;7331665;19;153580;-16
2022/02/23 16:00:40;;;;;;;6.25;4.10;;;;;;;;;;7330917;19;162046;-16
2022/02/23 16:03:12;;;;;;;5.93;3.47;;;;;;;;;;7331480;19;162340;-16
2022/02/23 16:05:46;;;;;;;8.32;4.00;;;;;;;;;;7330486;19;154035;-14
2022/02/23 16:08:18;;;;;;;7.80;4.10;;;;;;;;;;7331536;19;153521;-13
2022/02/23 16:10:50;;;;;;;5.93;3.75;;;;;;;;;;7331255;19;162065;-13
2022/02/23 16:13:22;;;;;;;5.72;3.70;;;;;;;;;;7331131;19;162343;-13
2022/02/23 16:15:53;;;;;;;8.07;4.30;;;;;;;;;;7330378;19;154353;-15
2022/02/23 16:18:24;;;;;;;7.10;3.72;;;;;;;;;;7331039;19;153950;-14
2022/02/23 16:20:58;;;;;;;5.93;3.67;;;;;;;;;;7329916;19;161926;-15
2022/02/23 16:23:30;;;;;;;7.40;4.15;;;;;;;;;;7330515;19;162457;-15
2022/02/23 16:26:01;;;;;;;5.30;3.47;;;;;;;;;;7330670;19;153924;-15
2022/02/23 16:28:32;;;;;;;6.32;3.65;;;;;;;;;;7330888;19;153551;-14
2022/02/23 16:31:04;;;;;;;6.72;3.70;;;;;;;;;;7327473;19;161934;-14
2022/02/23 16:33:35;;;;;;;6.80;3.70;;;;;;;;;;7330152;19;162131;-14
2022/02/23 16:36:09;;;;;;;6.03;3.20;;;;;;;;;;7330635;19;154047;-14
2022/02/23 16:38:41;;;;;;;7.55;3.67;;;;;;;;;;7330719;19;153722;-14
2022/02/23 16:41:13;;;;;;;5.35;3.38;;;;;;;;;;7329664;19;161953;-16
2022/02/23 16:43:45;;;;;;;5.85;3.20;;;;;;;;;;7329888;19;162440;-16
2022/02/23 16:46:16;;;;;;;4.40;3.38;;;;;;;;;;7330560;19;154172;-15
2022/02/23 16:48:47;;;;;;;5.72;3.50;;;;;;;;;;7330313;19;153478;-16
2022/02/23 16:51:21;;;;;;;5.82;3.47;;;;;;;;;;7329790;19;162032;-16
2022/02/23 16:53:58;;;;;;;3.70;2.90;;;;;;;;;;7329125;19;162422;-16
2022/02/23 16:56:30;;;;;;;4.65;3.15;;;;;;;;;;7330389;19;154091;-16
2022/02/23 16:59:02;;;;;;;6.68;3.30;;;;;;;;;;7329923;19;153666;-16
2022/02/23 17:01:36;;;;;;;3.53;2.92;;;;;;;;;;7328880;19;161835;-16
2022/02/23 17:04:09;;;;;;;5.93;3.75;;;;;;;;;;7329593;19;162839;-15
2022/02/23 17:06:43;;;;;;;7.07;3.78;;;;;;;;;;7328450;19;154055;-17
2022/02/23 17:09:14;;;;;;;4.72;3.58;;;;;;;;;;7329932;19;153514;-16
2022/02/23 17:11:46;;;;;;;5.82;3.40;;;;;;;;;;7329641;19;161961;-19
2022/02/23 17:14:17;;;;;;;4.50;2.83;;;;;;;;;;7329418;19;162490;-26
2022/02/23 17:16:48;;;;;;;6.55;3.30;;;;;;;;;;7329389;19;153903;-15
2022/02/23 17:19:20;;;;;;;5.85;3.20;;;;;;;;;;7329608;19;153506;-16
2022/02/23 17:21:54;;;;;;;4.60;3.28;;;;;;;;;;7328322;19;162106;-16
2022/02/23 17:24:25;;;;;;;5.03;3.33;;;;;;;;;;7328966;19;162502;-15
2022/02/23 17:26:57;;;;;;;5.45;3.30;;;;;;;;;;7328190;19;153940;-15
2022/02/23 17:29:28;;;;;;;5.50;3.33;;;;;;;;;;7328076;19;153710;-16
2022/02/23 17:32:00;;;;;;;8.15;3.45;;;;;;;;;;7329240;19;162002;-14
2022/02/23 17:34:31;;;;;;;3.72;2.78;;;;;;;;;;7327806;19;162616;-16
2022/02/23 17:37:06;;;;;;;3.90;2.58;;;;;;;;;;7329408;19;153924;-15
2022/02/23 17:39:40;;;;;;;3.95;2.63;;;;;;;;;;7329349;19;153530;-16
2022/02/23 17:42:11;;;;;;;5.55;2.88;;;;;;;;;;7327840;19;162003;-18
2022/02/23 17:44:43;;;;;;;8.07;3.65;;;;;;;;;;7327398;19;162488;-19
2022/02/23 17:47:14;;;;;;;5.72;3.33;;;;;;;;;;7328986;19;154045;-14
2022/02/23 17:49:52;;;;;;;5.22;3.10;;;;;;;;;;7328797;19;153744;-16
2022/02/23 17:52:28;;;;;;;5.72;3.17;;;;;;;;;;7327959;19;161942;-15
2022/02/23 17:54:59;;;;;;;6.15;3.42;;;;;;;;;;7327984;19;162366;-16
2022/02/23 17:57:31;;;;;;;5.00;3.20;;;;;;;;;;7328353;19;153978;-17
2022/02/23 18:00:02;;;;;;;6.13;3.05;;;;;;;;;;7328258;19;153631;-15
2022/02/23 18:02:33;;;;;;;4.55;3.22;;;;;;;;;;7326643;19;162095;-15
2022/02/23 18:05:21;;;;;;;4.85;3.10;;;;;;;;;;7327782;19;162951;-16
2022/02/23 18:07:56;;;;;;;4.25;3.22;;;;;;;;;;7334899;19;153983;-15
2022/02/23 18:10:27;;;;;;;5.30;3.33;;;;;;;;;;7334866;19;153664;-15
2022/02/23 18:12:58;;;;;;;5.32;3.40;;;;;;;;;;7334414;19;161949;-16
2022/02/23 18:15:30;;;;;;;5.32;2.95;;;;;;;;;;7333071;19;162358;-17
2022/02/23 18:18:01;;;;;;;5.00;2.90;;;;;;;;;;7334453;19;153976;-16
2022/02/23 18:20:34;;;;;;;4.60;2.92;;;;;;;;;;7335012;19;153855;-16
2022/02/23 18:23:09;;;;;;;4.60;2.72;;;;;;;;;;7332931;19;163401;-16
2022/02/23 18:25:41;;;;;;;4.35;2.65;;;;;;;;;;7332760;19;162496;-16
2022/02/23 18:28:12;;;;;;;2.50;2.30;;;;;;;;;;7334184;19;154219;-16
2022/02/23 18:30:44;;;;;;;4.68;2.90;;;;;;;;;;7332156;19;153688;-17
2022/02/23 18:33:17;;;;;;;3.30;2.70;;;;;;;;;;7333813;19;162143;-15
2022/02/23 18:35:48;;;;;;;4.13;3.08;;;;;;;;;;7333504;19;162638;-15
2022/02/23 18:38:22;;;;;;;4.55;3.13;;;;;;;;;;7334135;19;153975;-14
2022/02/23 18:40:53;;;;;;;4.57;2.42;;;;;;;;;;7334063;19;153538;-15
2022/02/23 18:43:26;;;;;;;5.63;2.72;;;;;;;;;;7332422;19;161824;-16
2022/02/23 18:45:59;;;;;;;4.05;2.55;;;;;;;;;;7333469;19;162659;-15
2022/02/23 18:48:30;;;;;;;5.03;3.20;;;;;;;;;;7332502;19;154112;-15
2022/02/23 18:51:02;;;;;;;4.05;2.83;;;;;;;;;;7333717;19;153539;-18
2022/02/23 18:53:36;;;;;;;4.50;3.08;;;;;;;;;;7333152;19;162004;-16
2022/02/23 18:56:07;;;;;;;4.22;2.95;;;;;;;;;;7332919;19;163466;-16
2022/02/23 18:58:40;;;;;;;4.38;2.80;;;;;;;;;;7333602;19;154123;-16
2022/02/23 19:01:11;;;;;;;4.68;2.88;;;;;;;;;;7332995;19;153789;-17
2022/02/23 19:04:03;;;;;;;4.65;3.00;;;;;;;;;;7330424;19;161861;-16
2022/02/23 19:06:34;;;;;;;4.45;2.78;;;;;;;;;;7331852;19;162496;-16
2022/02/23 19:09:10;;;;;;;4.20;2.55;;;;;;;;;;7332970;19;153950;-16
2022/02/23 19:11:41;;;;;;;3.60;2.60;;;;;;;;;;7332923;19;153558;-15
2022/02/23 19:14:12;;;;;;;3.63;2.83;;;;;;;;;;7332661;19;161928;-14
2022/02/23 19:16:44;;;;;;;4.32;2.75;;;;;;;;;;7332376;19;162510;-15
2022/02/23 19:19:15;;;;;;;4.20;2.78;;;;;;;;;;7333085;19;153967;-16
2022/02/23 19:21:46;;;;;;;4.38;2.88;;;;;;;;;;7332917;19;153582;-17
2022/02/23 19:24:20;;;;;;;3.15;2.45;;;;;;;;;;7330957;19;161910;-16
2022/02/23 19:26:52;;;;;;;4.35;2.80;;;;;;;;;;7332572;19;162682;-15
2022/02/23 19:29:23;;;;;;;4.28;2.58;;;;;;;;;;7332202;19;154068;-16
2022/02/23 19:31:54;;;;;;;2.60;2.03;;;;;;;;;;7332775;19;153509;-15
2022/02/23 19:34:26;;;;;;;3.35;2.75;;;;;;;;;;7331040;19;161798;-15
2022/02/23 19:36:57;;;;;;;4.00;2.78;;;;;;;;;;7332160;19;162827;-15
2022/02/23 19:39:31;;;;;;;3.75;2.38;;;;;;;;;;7332735;19;154234;-15
2022/02/23 19:42:03;;;;;;;3.80;2.72;;;;;;;;;;7331635;19;153713;-16
2022/02/23 19:44:37;;;;;;;5.43;3.20;;;;;;;;;;7328803;19;161933;-16
2022/02/23 19:47:09;;;;;;;7.00;4.53;;;;;;;;;;7331891;19;162386;-15
2022/02/23 19:49:42;;;;;;;6.43;4.10;;;;;;;;;;7332324;19;154132;-25
2022/02/23 19:52:13;;;;;;;5.38;3.35;;;;;;;;;;7331164;19;153677;-15
2022/02/23 19:54:47;;;;;;;5.53;3.50;;;;;;;;;;7330735;19;161779;-15
2022/02/23 19:57:19;;;;;;;7.85;4.50;;;;;;;;;;7331215;19;162484;-16
2022/02/23 19:59:50;;;;;;;9.05;4.55;;;;;;;;;;7333691;19;153964;-16
2022/02/23 20:02:22;;;;;;;8.05;5.10;;;;;;;;;;7334343;19;153519;-15
2022/02/23 20:04:53;;;;;;;6.68;4.55;;;;;;;;;;7332957;19;161817;-16
2022/02/23 20:07:27;;;;;;;7.85;4.60;;;;;;;;;;7331532;19;162606;-16
2022/02/23 20:10:01;;;;;;;9.18;4.60;;;;;;;;;;7331528;19;153952;-15
2022/02/23 20:12:33;;;;;;;7.80;5.20;;;;;;;;;;7330159;19;153733;-16
2022/02/23 20:15:05;;;;;;;7.20;4.70;;;;;;;;;;7333869;19;161876;-16
2022/02/23 20:17:37;;;;;;;11.13;5.60;;;;;;;;;;7331197;19;163067;-16
2022/02/23 20:20:10;;;;;;;10.48;5.28;;;;;;;;;;7334971;19;154044;-17
2022/02/23 20:22:42;;;;;;;10.93;5.73;;;;;;;;;;7334454;19;153673;-15
2022/02/23 20:25:21;;;;;;;8.20;5.25;;;;;;;;;;7331557;19;164227;-15
2022/02/23 20:27:52;;;;;;;10.02;5.47;;;;;;;;;;7334850;19;164074;-15
2022/02/23 20:30:24;;;;;;;9.88;5.32;;;;;;;;;;7327567;19;154115;-15
2022/02/23 20:32:56;;;;;;;10.80;5.35;;;;;;;;;;7330934;19;153643;-18
2022/02/23 20:35:28;;;;;;;8.55;5.20;;;;;;;;;;7330893;19;161923;-16
2022/02/23 20:37:59;;;;;;;12.02;5.88;;;;;;;;;;7330247;19;162367;-15
2022/02/23 20:40:33;;;;;;;10.35;6.03;;;;;;;;;;7331475;19;154122;-15
2022/02/23 20:43:04;;;;;;;9.63;6.05;;;;;;;;;;7330793;19;153539;-14
2022/02/23 20:45:36;;;;;;;13.75;7.22;;;;;;;;;;7328520;19;161824;-16
2022/02/23 20:48:08;;;;;;;19.00;10.50;;;;;;;;;;7330534;19;162471;-16
2022/02/23 20:50:41;;;;;;;13.45;8.50;;;;;;;;;;7330977;19;154133;-16
2022/02/23 20:53:13;;;;;;;22.98;11.75;;;;;;;;;;7330936;19;153638;-14
2022/02/23 20:55:47;;;;;;;31.80;13.40;;;;;;;;;;7330339;19;161833;-14
2022/02/23 20:58:18;;;;;;;19.65;10.88;;;;;;;;;;7330552;19;162694;-15
2022/02/23 21:00:50;;;;;;;21.88;11.68;;;;;;;;;;7330600;19;154130;-15
2022/02/23 21:03:21;;;;;;;21.20;11.98;;;;;;;;;;7331922;19;153529;-16
2022/02/23 21:05:53;;;;;;;21.02;10.70;;;;;;;;;;7331156;19;162188;-15
2022/02/23 21:08:24;;;;;;;23.63;10.15;;;;;;;;;;7328721;19;162716;-16
2022/02/23 21:10:58;;;;;;;25.35;14.05;;;;;;;;;;7329991;19;153948;-15
2022/02/23 21:13:30;;;;;;;22.58;12.18;;;;;;;;;;7330129;19;153721;-15
2022/02/23 21:16:02;;;;;;;21.23;11.10;;;;;;;;;;7329769;19;161818;-15
2022/02/23 21:18:34;;;;;;;20.13;10.77;;;;;;;;;;7333443;19;162298;-17
2022/02/23 21:21:06;;;;;;;21.48;12.18;;;;;;;;;;7329823;19;153733;-16
2022/02/23 21:23:37;;;;;;;23.08;11.80;;;;;;;;;;7329861;19;153759;-16
2022/02/23 21:26:11;;;;;;;23.08;13.50;;;;;;;;;;7326798;19;162072;-16
2022/02/23 21:28:43;;;;;;;26.35;13.82;;;;;;;;;;7329018;19;162498;-15
2022/02/23 21:31:15;;;;;;;21.63;12.40;;;;;;;;;;7327015;19;153962;-15
2022/02/23 21:33:46;;;;;;;27.17;16.45;;;;;;;;;;7333032;19;153629;-15
2022/02/23 21:39:06;;;;;;;18.38;12.60;;;;;;;;;;7331570;19;162756;-16
2022/02/23 21:41:42;;;;;;;22.23;12.07;;;;;;;;;;7332326;19;154231;-15
2022/02/23 21:44:14;;;;;;;22.05;13.05;;;;;;;;;;7337303;19;153962;-15
2022/02/23 21:46:46;;;;;;;24.13;13.33;;;;;;;;;;7336419;19;161460;-16
2022/02/23 21:49:17;;;;;;;24.05;12.55;;;;;;;;;;7338559;19;162453;-16
2022/02/23 21:51:49;;;;;;;20.88;12.90;;;;;;;;;;7338525;19;154015;-17
2022/02/23 21:54:20;;;;;;;23.52;13.82;;;;;;;;;;7337593;19;153775;-16
2022/02/23 21:56:54;;;;;;;20.90;12.77;;;;;;;;;;7337744;19;161863;-16
2022/02/23 21:59:25;;;;;;;18.45;12.23;;;;;;;;;;7336285;19;162467;-16
2022/02/23 22:01:57;;;;;;;18.25;12.73;;;;;;;;;;7338151;19;154035;-16
2022/02/23 22:04:28;;;;;;;21.23;11.40;;;;;;;;;;7337726;19;153648;-16
2022/02/23 22:06:59;;;;;;;19.42;11.95;;;;;;;;;;7334459;19;161903;-17
2022/02/23 22:09:31;;;;;;;18.85;11.77;;;;;;;;;;7337848;19;162579;-16
2022/02/23 22:12:05;;;;;;;19.67;12.25;;;;;;;;;;7337403;19;153985;-15
2022/02/23 22:14:37;;;;;;;22.23;11.73;;;;;;;;;;7338085;19;153564;-15
2022/02/23 22:17:08;;;;;;;20.05;12.00;;;;;;;;;;7337369;19;161804;-15
2022/02/23 22:19:39;;;;;;;19.10;11.57;;;;;;;;;;7337737;19;162953;-16
2022/02/23 22:22:11;;;;;;;17.05;11.32;;;;;;;;;;7337528;19;154141;-14
2022/02/23 22:24:42;;;;;;;21.15;11.50;;;;;;;;;;7338045;19;153842;-15
2022/02/23 22:27:17;;;;;;;17.42;11.43;;;;;;;;;;7333490;19;161618;-15
2022/02/23 22:29:48;;;;;;;18.60;11.18;;;;;;;;;;7335877;19;162585;-15
2022/02/23 22:32:20;;;;;;;18.53;11.57;;;;;;;;;;7337344;19;153788;-16
2022/02/23 22:34:51;;;;;;;17.23;10.73;;;;;;;;;;7337282;19;153615;-17
2022/02/23 22:37:23;;;;;;;19.08;11.45;;;;;;;;;;7336835;19;161841;-16
2022/02/23 22:39:55;;;;;;;20.80;12.10;;;;;;;;;;7337000;19;162450;-14
2022/02/23 22:42:29;;;;;;;19.52;11.85;;;;;;;;;;7336539;19;154022;-16
2022/02/23 22:45:01;;;;;;;16.42;11.20;;;;;;;;;;7337507;19;153795;-14
2022/02/23 22:47:33;;;;;;;16.25;10.63;;;;;;;;;;7336196;19;162037;-15
2022/02/23 22:50:05;;;;;;;16.90;10.63;;;;;;;;;;7337149;19;162562;-15
2022/02/23 22:52:37;;;;;;;17.70;11.18;;;;;;;;;;7335903;19;153896;-14
2022/02/23 22:55:09;;;;;;;16.02;11.18;;;;;;;;;;7336398;19;153653;-16
2022/02/23 22:57:43;;;;;;;17.25;10.70;;;;;;;;;;7336597;19;161714;-16
2022/02/23 23:00:37;;;;;;;17.35;10.93;;;;;;;;;;7336353;19;162324;-16
2022/02/23 23:03:08;;;;;;;;;;;;;;;;;;7336211;19;154161;-16
2022/02/23 23:08:23;;;;;;;15.00;10.05;;;;;;;;;;7332588;19;162641;-16
2022/02/23 23:10:54;;;;;;;17.25;9.98;;;;;;;;;;7330699;19;162554;-15
2022/02/23 23:13:28;;;;;;;14.02;9.73;;;;;;;;;;7334326;19;154159;-16
2022/02/23 23:16:00;;;;;;;15.90;10.25;;;;;;;;;;7334862;19;153558;-16
2022/02/23 23:18:31;;;;;;;15.77;9.93;;;;;;;;;;7334246;19;162031;-16
2022/02/23 23:21:03;;;;;;;15.50;10.15;;;;;;;;;;7334821;19;162537;-16
2022/02/23 23:23:35;;;;;;;15.77;10.18;;;;;;;;;;7335844;19;155293;-16
2022/02/23 23:26:08;;;;;;;16.40;10.30;;;;;;;;;;7334523;19;153704;-15
2022/02/23 23:28:42;;;;;;;;;;;;;;;;;;7334344;19;161827;-15
2022/02/23 23:31:13;;;;;;;16.67;9.35;;;;;;;;;;7332504;19;163143;-16
2022/02/23 23:33:49;;;;;;;16.67;10.00;;;;;;;;;;7335305;19;153948;-16
2022/02/23 23:36:22;;;;;;;12.43;9.30;;;;;;;;;;7333865;19;153597;-16
2022/02/23 23:38:54;;;;;;;13.60;8.93;;;;;;;;;;7333701;19;161971;-15
2022/02/23 23:41:25;;;;;;;12.38;9.02;;;;;;;;;;7334853;19;162539;-16
2022/02/23 23:44:01;;;;;;;16.58;9.75;;;;;;;;;;7334205;19;154035;-16
2022/02/23 23:46:32;;;;;;;14.32;9.10;;;;;;;;;;7333443;19;153741;-16
2022/02/23 23:49:04;;;;;;;12.98;9.00;;;;;;;;;;7333165;19;162011;-15
2022/02/23 23:51:35;;;;;;;13.95;9.25;;;;;;;;;;7334327;19;162594;-15
2022/02/23 23:54:06;;;;;;;13.68;9.32;;;;;;;;;;7334522;19;154015;-15
2022/02/23 23:56:48;;;;;;;13.43;9.45;;;;;;;;;;7334790;19;153661;-16
2022/02/23 23:59:21;;;;;;;13.30;8.52;;;;;;;;;;7334129;19;161914;-16
